KVIH/VIH METAR and TAF weather

Enter ICAO airport designator
Station Type Date Time Source
KVIH METAR 2021/09/23 16:53 UTC NOAA

KVIH 231653Z AUTO 28006KT 10SM FEW048 20/08 A3015 RMK AO2 SLP206 T02000083


Station Type Date Time Source
KVIH Decoded METAR 2021/09/23 16:53 UTC NOAA

ROLLA/VICHY ROLLA NATIONAL, MO, United States (KVIH) 38-08N 91-46W 333M
Sep 23, 2021 - 12:53 PM EDT / 2021.09.23 1653 UTC
Wind: from the W (280 degrees) at 7 MPH (6 KT):0
Visibility: 10 mile(s):0
Sky conditions: mostly clear
Temperature: 68.0 F (20.0 C)
Dew Point: 46.9 F (8.3 C)
Relative Humidity: 46%
Pressure (altimeter): 30.15 in. Hg (1020 hPa)
ob: KVIH 231653Z AUTO 28006KT 10SM FEW048 20/08 A3015 RMK AO2 SLP206 T02000083
cycle: 17

Station Type Date Time Source
KVIH TAF UTC NOAA

Error!

Example: see airport list